sensor_id;sensor_type;location;lat;lon;timestamp;P1;durP1;ratioP1;P2;durP2;ratioP2
8881;SDS011;4477;48.736;9.176;2023-12-04T00:01:10;50.97;;;25.90;;
8881;SDS011;4477;48.736;9.176;2023-12-04T00:03:37;56.77;;;29.30;;
8881;SDS011;4477;48.736;9.176;2023-12-04T00:06:06;53.03;;;27.07;;
8881;SDS011;4477;48.736;9.176;2023-12-04T00:08:33;56.07;;;25.67;;
8881;SDS011;4477;48.736;9.176;2023-12-04T00:11:00;48.33;;;25.47;;
8881;SDS011;4477;48.736;9.176;2023-12-04T00:13:26;50.23;;;27.03;;
8881;SDS011;4477;48.736;9.176;2023-12-04T00:15:52;52.10;;;25.77;;
8881;SDS011;4477;48.736;9.176;2023-12-04T00:18:19;54.23;;;27.87;;
8881;SDS011;4477;48.736;9.176;2023-12-04T00:20:46;52.27;;;26.30;;
8881;SDS011;4477;48.736;9.176;2023-12-04T00:23:14;49.30;;;25.47;;
8881;SDS011;4477;48.736;9.176;2023-12-04T00:25:41;52.83;;;25.03;;
8881;SDS011;4477;48.736;9.176;2023-12-04T00:28:10;49.43;;;25.87;;
8881;SDS011;4477;48.736;9.176;2023-12-04T00:30:37;50.97;;;25.43;;
8881;SDS011;4477;48.736;9.176;2023-12-04T00:33:04;52.23;;;24.20;;
8881;SDS011;4477;48.736;9.176;2023-12-04T00:35:30;56.20;;;27.07;;
8881;SDS011;4477;48.736;9.176;2023-12-04T00:37:57;56.83;;;26.27;;
8881;SDS011;4477;48.736;9.176;2023-12-04T00:40:25;54.73;;;24.47;;
8881;SDS011;4477;48.736;9.176;2023-12-04T00:42:52;56.33;;;24.83;;
8881;SDS011;4477;48.736;9.176;2023-12-04T00:45:19;53.33;;;25.53;;
8881;SDS011;4477;48.736;9.176;2023-12-04T00:47:46;50.60;;;24.93;;
8881;SDS011;4477;48.736;9.176;2023-12-04T00:50:13;51.00;;;25.97;;
8881;SDS011;4477;48.736;9.176;2023-12-04T00:52:40;49.03;;;24.60;;
8881;SDS011;4477;48.736;9.176;2023-12-04T00:55:07;51.67;;;25.30;;
8881;SDS011;4477;48.736;9.176;2023-12-04T00:57:35;52.70;;;25.63;;
8881;SDS011;4477;48.736;9.176;2023-12-04T01:00:02;57.70;;;25.77;;
8881;SDS011;4477;48.736;9.176;2023-12-04T01:02:29;58.67;;;25.03;;
8881;SDS011;4477;48.736;9.176;2023-12-04T01:04:56;55.83;;;25.57;;
8881;SDS011;4477;48.736;9.176;2023-12-04T01:07:26;52.77;;;25.40;;
8881;SDS011;4477;48.736;9.176;2023-12-04T01:09:54;59.83;;;26.63;;
8881;SDS011;4477;48.736;9.176;2023-12-04T01:12:21;49.03;;;25.70;;
8881;SDS011;4477;48.736;9.176;2023-12-04T01:14:49;58.43;;;26.03;;
8881;SDS011;4477;48.736;9.176;2023-12-04T01:17:16;58.50;;;27.27;;
8881;SDS011;4477;48.736;9.176;2023-12-04T01:19:43;57.17;;;26.97;;
8881;SDS011;4477;48.736;9.176;2023-12-04T01:22:09;49.23;;;24.83;;
8881;SDS011;4477;48.736;9.176;2023-12-04T01:24:37;57.00;;;25.93;;
8881;SDS011;4477;48.736;9.176;2023-12-04T01:27:04;56.57;;;26.13;;
8881;SDS011;4477;48.736;9.176;2023-12-04T01:29:31;57.07;;;27.07;;
8881;SDS011;4477;48.736;9.176;2023-12-04T01:31:59;60.13;;;27.77;;
8881;SDS011;4477;48.736;9.176;2023-12-04T01:34:26;57.27;;;27.50;;
8881;SDS011;4477;48.736;9.176;2023-12-04T01:36:52;61.47;;;27.97;;
8881;SDS011;4477;48.736;9.176;2023-12-04T01:39:19;60.50;;;26.40;;
8881;SDS011;4477;48.736;9.176;2023-12-04T01:41:46;52.50;;;26.77;;
8881;SDS011;4477;48.736;9.176;2023-12-04T01:44:15;53.80;;;25.40;;
8881;SDS011;4477;48.736;9.176;2023-12-04T01:46:42;54.63;;;26.43;;
8881;SDS011;4477;48.736;9.176;2023-12-04T01:49:12;61.53;;;25.63;;
8881;SDS011;4477;48.736;9.176;2023-12-04T01:51:40;52.00;;;25.67;;
8881;SDS011;4477;48.736;9.176;2023-12-04T01:54:09;57.10;;;25.93;;
8881;SDS011;4477;48.736;9.176;2023-12-04T01:56:36;58.50;;;26.53;;
8881;SDS011;4477;48.736;9.176;2023-12-04T01:59:03;52.90;;;25.80;;
8881;SDS011;4477;48.736;9.176;2023-12-04T02:01:30;52.13;;;24.77;;
8881;SDS011;4477;48.736;9.176;2023-12-04T02:04:00;56.70;;;26.70;;
8881;SDS011;4477;48.736;9.176;2023-12-04T02:06:30;58.67;;;25.97;;
8881;SDS011;4477;48.736;9.176;2023-12-04T02:08:57;55.20;;;25.40;;
8881;SDS011;4477;48.736;9.176;2023-12-04T02:11:24;52.03;;;25.27;;
8881;SDS011;4477;48.736;9.176;2023-12-04T02:13:50;53.50;;;25.10;;
8881;SDS011;4477;48.736;9.176;2023-12-04T02:16:18;57.20;;;24.83;;
8881;SDS011;4477;48.736;9.176;2023-12-04T02:18:46;53.90;;;24.37;;
8881;SDS011;4477;48.736;9.176;2023-12-04T02:21:13;53.80;;;25.00;;
8881;SDS011;4477;48.736;9.176;2023-12-04T02:23:41;57.33;;;25.67;;
8881;SDS011;4477;48.736;9.176;2023-12-04T02:26:10;59.37;;;27.20;;
8881;SDS011;4477;48.736;9.176;2023-12-04T02:28:41;56.10;;;24.83;;
8881;SDS011;4477;48.736;9.176;2023-12-04T02:31:16;57.07;;;26.97;;
8881;SDS011;4477;48.736;9.176;2023-12-04T02:33:44;56.60;;;25.67;;
8881;SDS011;4477;48.736;9.176;2023-12-04T02:36:13;49.97;;;24.73;;
8881;SDS011;4477;48.736;9.176;2023-12-04T02:38:40;61.20;;;27.60;;
8881;SDS011;4477;48.736;9.176;2023-12-04T02:41:07;52.87;;;24.60;;
8881;SDS011;4477;48.736;9.176;2023-12-04T02:43:36;57.53;;;25.23;;
8881;SDS011;4477;48.736;9.176;2023-12-04T02:46:05;56.53;;;26.43;;
8881;SDS011;4477;48.736;9.176;2023-12-04T02:48:35;54.17;;;24.87;;
8881;SDS011;4477;48.736;9.176;2023-12-04T02:51:03;56.33;;;24.70;;
8881;SDS011;4477;48.736;9.176;2023-12-04T02:53:31;54.17;;;24.40;;
8881;SDS011;4477;48.736;9.176;2023-12-04T02:55:57;51.80;;;24.07;;
8881;SDS011;4477;48.736;9.176;2023-12-04T02:58:25;60.67;;;24.10;;
8881;SDS011;4477;48.736;9.176;2023-12-04T03:00:52;54.33;;;24.97;;
8881;SDS011;4477;48.736;9.176;2023-12-04T03:03:19;54.97;;;24.87;;
8881;SDS011;4477;48.736;9.176;2023-12-04T03:05:46;54.57;;;25.30;;
8881;SDS011;4477;48.736;9.176;2023-12-04T03:08:13;58.30;;;25.83;;
8881;SDS011;4477;48.736;9.176;2023-12-04T03:10:39;54.97;;;25.77;;
8881;SDS011;4477;48.736;9.176;2023-12-04T03:13:06;62.87;;;26.20;;
8881;SDS011;4477;48.736;9.176;2023-12-04T03:15:37;58.37;;;24.47;;
8881;SDS011;4477;48.736;9.176;2023-12-04T03:18:04;54.43;;;26.33;;
8881;SDS011;4477;48.736;9.176;2023-12-04T03:20:31;62.67;;;26.03;;
8881;SDS011;4477;48.736;9.176;2023-12-04T03:22:58;50.37;;;25.67;;
8881;SDS011;4477;48.736;9.176;2023-12-04T03:25:28;57.30;;;26.40;;
8881;SDS011;4477;48.736;9.176;2023-12-04T03:27:55;53.23;;;25.47;;
8881;SDS011;4477;48.736;9.176;2023-12-04T03:30:22;52.00;;;25.90;;
8881;SDS011;4477;48.736;9.176;2023-12-04T03:32:50;56.80;;;27.00;;
8881;SDS011;4477;48.736;9.176;2023-12-04T03:35:16;58.50;;;28.03;;
8881;SDS011;4477;48.736;9.176;2023-12-04T03:37:43;53.20;;;25.60;;
8881;SDS011;4477;48.736;9.176;2023-12-04T03:40:10;55.67;;;27.80;;
8881;SDS011;4477;48.736;9.176;2023-12-04T03:42:37;59.43;;;27.83;;
8881;SDS011;4477;48.736;9.176;2023-12-04T03:45:06;56.70;;;26.90;;
8881;SDS011;4477;48.736;9.176;2023-12-04T03:47:33;54.73;;;26.43;;
8881;SDS011;4477;48.736;9.176;2023-12-04T03:50:01;58.43;;;28.33;;
8881;SDS011;4477;48.736;9.176;2023-12-04T03:52:28;51.10;;;26.90;;
8881;SDS011;4477;48.736;9.176;2023-12-04T03:54:55;57.40;;;26.70;;
8881;SDS011;4477;48.736;9.176;2023-12-04T03:57:22;60.43;;;26.17;;
8881;SDS011;4477;48.736;9.176;2023-12-04T03:59:49;60.40;;;28.07;;
8881;SDS011;4477;48.736;9.176;2023-12-04T04:02:15;54.83;;;26.67;;
8881;SDS011;4477;48.736;9.176;2023-12-04T04:04:42;57.20;;;27.57;;
8881;SDS011;4477;48.736;9.176;2023-12-04T04:07:11;54.20;;;27.13;;
8881;SDS011;4477;48.736;9.176;2023-12-04T04:09:38;56.67;;;26.40;;
8881;SDS011;4477;48.736;9.176;2023-12-04T04:12:05;55.43;;;26.47;;
8881;SDS011;4477;48.736;9.176;2023-12-04T04:14:32;53.63;;;27.20;;
8881;SDS011;4477;48.736;9.176;2023-12-04T04:16:57;52.97;;;26.37;;
8881;SDS011;4477;48.736;9.176;2023-12-04T04:19:27;54.70;;;26.73;;
8881;SDS011;4477;48.736;9.176;2023-12-04T04:21:54;54.60;;;25.83;;
8881;SDS011;4477;48.736;9.176;2023-12-04T04:24:22;47.77;;;26.33;;
8881;SDS011;4477;48.736;9.176;2023-12-04T04:26:49;46.13;;;25.03;;
8881;SDS011;4477;48.736;9.176;2023-12-04T04:29:15;58.27;;;26.77;;
8881;SDS011;4477;48.736;9.176;2023-12-04T04:31:42;51.57;;;26.63;;
8881;SDS011;4477;48.736;9.176;2023-12-04T04:34:09;58.07;;;27.57;;
8881;SDS011;4477;48.736;9.176;2023-12-04T04:36:36;55.53;;;26.80;;
8881;SDS011;4477;48.736;9.176;2023-12-04T04:39:03;50.50;;;25.67;;
8881;SDS011;4477;48.736;9.176;2023-12-04T04:41:31;47.23;;;25.70;;
8881;SDS011;4477;48.736;9.176;2023-12-04T04:44:00;52.77;;;26.17;;
8881;SDS011;4477;48.736;9.176;2023-12-04T04:46:27;55.00;;;25.57;;
8881;SDS011;4477;48.736;9.176;2023-12-04T04:48:54;53.07;;;25.73;;
8881;SDS011;4477;48.736;9.176;2023-12-04T04:51:21;54.03;;;27.67;;
8881;SDS011;4477;48.736;9.176;2023-12-04T04:53:48;54.00;;;27.13;;
8881;SDS011;4477;48.736;9.176;2023-12-04T04:56:15;50.87;;;25.47;;
8881;SDS011;4477;48.736;9.176;2023-12-04T04:58:43;50.20;;;26.67;;
8881;SDS011;4477;48.736;9.176;2023-12-04T05:01:10;50.50;;;26.97;;
8881;SDS011;4477;48.736;9.176;2023-12-04T05:03:37;52.93;;;25.73;;
8881;SDS011;4477;48.736;9.176;2023-12-04T05:06:04;53.50;;;25.90;;
8881;SDS011;4477;48.736;9.176;2023-12-04T05:08:31;50.80;;;25.50;;
8881;SDS011;4477;48.736;9.176;2023-12-04T05:10:58;49.10;;;25.33;;
8881;SDS011;4477;48.736;9.176;2023-12-04T05:13:24;53.63;;;27.40;;
8881;SDS011;4477;48.736;9.176;2023-12-04T05:15:53;46.93;;;24.40;;
8881;SDS011;4477;48.736;9.176;2023-12-04T05:18:20;48.83;;;25.73;;
8881;SDS011;4477;48.736;9.176;2023-12-04T05:20:46;51.20;;;25.80;;
8881;SDS011;4477;48.736;9.176;2023-12-04T05:23:13;50.57;;;26.87;;
8881;SDS011;4477;48.736;9.176;2023-12-04T05:25:42;52.57;;;28.03;;
8881;SDS011;4477;48.736;9.176;2023-12-04T05:28:09;50.37;;;26.73;;
8881;SDS011;4477;48.736;9.176;2023-12-04T05:30:35;47.57;;;26.00;;
8881;SDS011;4477;48.736;9.176;2023-12-04T05:33:04;49.53;;;25.47;;
8881;SDS011;4477;48.736;9.176;2023-12-04T05:35:30;49.00;;;25.33;;
8881;SDS011;4477;48.736;9.176;2023-12-04T05:37:59;45.47;;;24.87;;
8881;SDS011;4477;48.736;9.176;2023-12-04T05:40:26;45.17;;;24.57;;
8881;SDS011;4477;48.736;9.176;2023-12-04T05:42:52;45.17;;;24.33;;
8881;SDS011;4477;48.736;9.176;2023-12-04T05:45:19;46.53;;;25.20;;
8881;SDS011;4477;48.736;9.176;2023-12-04T05:47:46;47.10;;;24.50;;
8881;SDS011;4477;48.736;9.176;2023-12-04T05:50:14;42.90;;;23.17;;
8881;SDS011;4477;48.736;9.176;2023-12-04T05:52:41;47.60;;;24.27;;
8881;SDS011;4477;48.736;9.176;2023-12-04T05:55:08;44.30;;;23.87;;
8881;SDS011;4477;48.736;9.176;2023-12-04T05:57:36;42.80;;;21.47;;
8881;SDS011;4477;48.736;9.176;2023-12-04T06:00:05;39.03;;;22.13;;
8881;SDS011;4477;48.736;9.176;2023-12-04T06:02:37;36.50;;;20.53;;
8881;SDS011;4477;48.736;9.176;2023-12-04T06:05:04;40.60;;;22.10;;
8881;SDS011;4477;48.736;9.176;2023-12-04T06:07:34;38.90;;;20.70;;
8881;SDS011;4477;48.736;9.176;2023-12-04T06:10:01;33.83;;;18.90;;
8881;SDS011;4477;48.736;9.176;2023-12-04T06:12:28;34.37;;;18.93;;
8881;SDS011;4477;48.736;9.176;2023-12-04T06:14:55;36.40;;;18.83;;
8881;SDS011;4477;48.736;9.176;2023-12-04T06:17:24;33.73;;;19.47;;
8881;SDS011;4477;48.736;9.176;2023-12-04T06:19:50;30.17;;;19.07;;
8881;SDS011;4477;48.736;9.176;2023-12-04T06:22:18;31.07;;;18.50;;
8881;SDS011;4477;48.736;9.176;2023-12-04T06:24:48;33.13;;;19.50;;
8881;SDS011;4477;48.736;9.176;2023-12-04T06:27:16;38.07;;;19.93;;
8881;SDS011;4477;48.736;9.176;2023-12-04T06:29:46;33.30;;;20.03;;
8881;SDS011;4477;48.736;9.176;2023-12-04T06:32:14;37.03;;;21.70;;
8881;SDS011;4477;48.736;9.176;2023-12-04T06:34:41;37.17;;;20.63;;
8881;SDS011;4477;48.736;9.176;2023-12-04T06:37:09;37.50;;;20.20;;
8881;SDS011;4477;48.736;9.176;2023-12-04T06:39:39;34.37;;;20.30;;
8881;SDS011;4477;48.736;9.176;2023-12-04T06:42:08;37.03;;;22.17;;
8881;SDS011;4477;48.736;9.176;2023-12-04T06:44:36;38.43;;;20.93;;
8881;SDS011;4477;48.736;9.176;2023-12-04T06:47:04;34.60;;;20.83;;
8881;SDS011;4477;48.736;9.176;2023-12-04T06:49:33;32.67;;;19.77;;
8881;SDS011;4477;48.736;9.176;2023-12-04T06:52:00;38.97;;;19.77;;
8881;SDS011;4477;48.736;9.176;2023-12-04T06:54:27;31.63;;;18.97;;
8881;SDS011;4477;48.736;9.176;2023-12-04T06:56:54;34.37;;;18.60;;
8881;SDS011;4477;48.736;9.176;2023-12-04T06:59:22;28.97;;;18.13;;
8881;SDS011;4477;48.736;9.176;2023-12-04T07:01:49;29.80;;;19.07;;
8881;SDS011;4477;48.736;9.176;2023-12-04T07:04:16;34.90;;;20.83;;
8881;SDS011;4477;48.736;9.176;2023-12-04T07:06:46;32.60;;;19.23;;
8881;SDS011;4477;48.736;9.176;2023-12-04T07:09:14;38.20;;;20.60;;
8881;SDS011;4477;48.736;9.176;2023-12-04T07:11:41;37.30;;;20.33;;
8881;SDS011;4477;48.736;9.176;2023-12-04T07:14:11;33.37;;;19.37;;
8881;SDS011;4477;48.736;9.176;2023-12-04T07:16:40;30.43;;;19.17;;
8881;SDS011;4477;48.736;9.176;2023-12-04T07:19:08;41.00;;;21.10;;
8881;SDS011;4477;48.736;9.176;2023-12-04T07:21:35;31.13;;;20.10;;
8881;SDS011;4477;48.736;9.176;2023-12-04T07:24:02;32.60;;;20.33;;
8881;SDS011;4477;48.736;9.176;2023-12-04T07:26:30;33.33;;;21.77;;
8881;SDS011;4477;48.736;9.176;2023-12-04T07:28:57;32.27;;;20.13;;
8881;SDS011;4477;48.736;9.176;2023-12-04T07:31:24;35.53;;;20.73;;
8881;SDS011;4477;48.736;9.176;2023-12-04T07:33:53;31.03;;;19.57;;
8881;SDS011;4477;48.736;9.176;2023-12-04T07:36:20;30.57;;;18.53;;
8881;SDS011;4477;48.736;9.176;2023-12-04T07:38:47;31.50;;;20.37;;
8881;SDS011;4477;48.736;9.176;2023-12-04T07:41:14;32.60;;;20.47;;
8881;SDS011;4477;48.736;9.176;2023-12-04T07:43:43;38.03;;;20.87;;
8881;SDS011;4477;48.736;9.176;2023-12-04T07:46:10;33.00;;;19.67;;
8881;SDS011;4477;48.736;9.176;2023-12-04T07:48:37;32.87;;;19.07;;
8881;SDS011;4477;48.736;9.176;2023-12-04T07:51:06;31.37;;;19.10;;
8881;SDS011;4477;48.736;9.176;2023-12-04T07:53:33;30.00;;;19.23;;
8881;SDS011;4477;48.736;9.176;2023-12-04T07:56:00;30.03;;;18.10;;
8881;SDS011;4477;48.736;9.176;2023-12-04T07:58:29;29.20;;;17.93;;
8881;SDS011;4477;48.736;9.176;2023-12-04T08:00:56;27.47;;;17.23;;
8881;SDS011;4477;48.736;9.176;2023-12-04T08:03:24;29.73;;;17.70;;
8881;SDS011;4477;48.736;9.176;2023-12-04T08:05:51;27.67;;;17.40;;
8881;SDS011;4477;48.736;9.176;2023-12-04T08:08:19;24.77;;;16.73;;
8881;SDS011;4477;48.736;9.176;2023-12-04T08:10:46;25.87;;;15.97;;
8881;SDS011;4477;48.736;9.176;2023-12-04T08:13:13;26.27;;;17.17;;
8881;SDS011;4477;48.736;9.176;2023-12-04T08:15:41;27.87;;;18.27;;
8881;SDS011;4477;48.736;9.176;2023-12-04T08:18:07;31.63;;;18.60;;
8881;SDS011;4477;48.736;9.176;2023-12-04T08:20:34;27.13;;;16.80;;
8881;SDS011;4477;48.736;9.176;2023-12-04T08:23:01;24.37;;;15.40;;
8881;SDS011;4477;48.736;9.176;2023-12-04T08:25:29;28.57;;;16.73;;
8881;SDS011;4477;48.736;9.176;2023-12-04T08:27:57;26.30;;;16.17;;
8881;SDS011;4477;48.736;9.176;2023-12-04T08:30:25;26.97;;;15.93;;
8881;SDS011;4477;48.736;9.176;2023-12-04T08:32:53;26.33;;;15.87;;
8881;SDS011;4477;48.736;9.176;2023-12-04T08:35:19;22.93;;;14.83;;
8881;SDS011;4477;48.736;9.176;2023-12-04T08:37:47;23.80;;;16.13;;
8881;SDS011;4477;48.736;9.176;2023-12-04T08:40:14;23.73;;;15.83;;
8881;SDS011;4477;48.736;9.176;2023-12-04T08:42:42;22.87;;;15.83;;
8881;SDS011;4477;48.736;9.176;2023-12-04T08:45:09;26.80;;;16.80;;
8881;SDS011;4477;48.736;9.176;2023-12-04T08:47:36;27.60;;;17.13;;
8881;SDS011;4477;48.736;9.176;2023-12-04T08:50:03;24.20;;;16.37;;
8881;SDS011;4477;48.736;9.176;2023-12-04T08:52:31;27.87;;;16.43;;
8881;SDS011;4477;48.736;9.176;2023-12-04T08:54:57;23.50;;;15.67;;
8881;SDS011;4477;48.736;9.176;2023-12-04T08:57:25;23.47;;;16.10;;
8881;SDS011;4477;48.736;9.176;2023-12-04T08:59:53;25.30;;;16.20;;
8881;SDS011;4477;48.736;9.176;2023-12-04T09:02:20;22.53;;;15.33;;
8881;SDS011;4477;48.736;9.176;2023-12-04T09:04:47;23.63;;;16.07;;
8881;SDS011;4477;48.736;9.176;2023-12-04T09:07:14;24.13;;;15.83;;
8881;SDS011;4477;48.736;9.176;2023-12-04T09:09:40;24.00;;;15.90;;
8881;SDS011;4477;48.736;9.176;2023-12-04T09:12:09;23.27;;;15.03;;
8881;SDS011;4477;48.736;9.176;2023-12-04T09:14:36;22.73;;;16.10;;
8881;SDS011;4477;48.736;9.176;2023-12-04T09:17:05;23.73;;;15.87;;
8881;SDS011;4477;48.736;9.176;2023-12-04T09:19:32;22.90;;;15.23;;
8881;SDS011;4477;48.736;9.176;2023-12-04T09:22:00;22.80;;;14.70;;
8881;SDS011;4477;48.736;9.176;2023-12-04T09:24:27;23.23;;;16.17;;
8881;SDS011;4477;48.736;9.176;2023-12-04T09:26:56;24.67;;;16.57;;
8881;SDS011;4477;48.736;9.176;2023-12-04T09:29:23;24.07;;;16.60;;
8881;SDS011;4477;48.736;9.176;2023-12-04T09:31:50;20.17;;;14.47;;
8881;SDS011;4477;48.736;9.176;2023-12-04T09:34:19;17.83;;;13.73;;
8881;SDS011;4477;48.736;9.176;2023-12-04T09:36:47;17.17;;;14.10;;
8881;SDS011;4477;48.736;9.176;2023-12-04T09:39:14;19.10;;;13.77;;
8881;SDS011;4477;48.736;9.176;2023-12-04T09:41:47;21.10;;;13.90;;
8881;SDS011;4477;48.736;9.176;2023-12-04T09:44:34;18.17;;;13.27;;
8881;SDS011;4477;48.736;9.176;2023-12-04T09:47:12;18.43;;;12.40;;
8881;SDS011;4477;48.736;9.176;2023-12-04T09:49:56;18.63;;;12.60;;
8881;SDS011;4477;48.736;9.176;2023-12-04T09:52:44;15.97;;;11.77;;
8881;SDS011;4477;48.736;9.176;2023-12-04T09:55:31;19.33;;;12.67;;
8881;SDS011;4477;48.736;9.176;2023-12-04T09:58:13;15.47;;;11.73;;
8881;SDS011;4477;48.736;9.176;2023-12-04T10:01:00;16.77;;;11.47;;
8881;SDS011;4477;48.736;9.176;2023-12-04T10:03:42;17.50;;;11.53;;
8881;SDS011;4477;48.736;9.176;2023-12-04T10:06:12;13.63;;;10.70;;
8881;SDS011;4477;48.736;9.176;2023-12-04T10:08:43;14.23;;;10.33;;
8881;SDS011;4477;48.736;9.176;2023-12-04T10:11:22;15.37;;;11.23;;
8881;SDS011;4477;48.736;9.176;2023-12-04T10:13:51;15.27;;;11.97;;
8881;SDS011;4477;48.736;9.176;2023-12-04T10:19:14;15.93;;;11.27;;
8881;SDS011;4477;48.736;9.176;2023-12-04T10:21:44;15.20;;;11.03;;
8881;SDS011;4477;48.736;9.176;2023-12-04T10:24:12;13.73;;;10.57;;
8881;SDS011;4477;48.736;9.176;2023-12-04T10:26:52;13.13;;;10.03;;
8881;SDS011;4477;48.736;9.176;2023-12-04T10:29:19;14.33;;;10.77;;
8881;SDS011;4477;48.736;9.176;2023-12-04T10:31:46;13.23;;;10.50;;
8881;SDS011;4477;48.736;9.176;2023-12-04T10:34:18;14.03;;;10.50;;
8881;SDS011;4477;48.736;9.176;2023-12-04T10:36:47;13.87;;;10.47;;
8881;SDS011;4477;48.736;9.176;2023-12-04T10:39:14;14.67;;;10.23;;
8881;SDS011;4477;48.736;9.176;2023-12-04T10:41:42;12.93;;;9.83;;
8881;SDS011;4477;48.736;9.176;2023-12-04T10:44:11;14.33;;;10.27;;
8881;SDS011;4477;48.736;9.176;2023-12-04T10:46:42;15.17;;;11.37;;
8881;SDS011;4477;48.736;9.176;2023-12-04T10:49:11;14.80;;;9.90;;
8881;SDS011;4477;48.736;9.176;2023-12-04T10:51:39;12.47;;;10.00;;
8881;SDS011;4477;48.736;9.176;2023-12-04T10:54:07;12.80;;;9.70;;
8881;SDS011;4477;48.736;9.176;2023-12-04T10:56:35;13.93;;;9.43;;
8881;SDS011;4477;48.736;9.176;2023-12-04T10:59:03;12.60;;;9.63;;
8881;SDS011;4477;48.736;9.176;2023-12-04T11:01:36;14.33;;;10.87;;
8881;SDS011;4477;48.736;9.176;2023-12-04T11:04:05;13.73;;;10.40;;
8881;SDS011;4477;48.736;9.176;2023-12-04T11:06:33;12.67;;;10.30;;
8881;SDS011;4477;48.736;9.176;2023-12-04T11:09:06;17.33;;;13.40;;
8881;SDS011;4477;48.736;9.176;2023-12-04T11:11:34;13.33;;;10.77;;
8881;SDS011;4477;48.736;9.176;2023-12-04T11:14:05;13.03;;;10.93;;
8881;SDS011;4477;48.736;9.176;2023-12-04T11:16:37;12.03;;;9.83;;
8881;SDS011;4477;48.736;9.176;2023-12-04T11:19:10;12.47;;;10.87;;
8881;SDS011;4477;48.736;9.176;2023-12-04T11:21:45;11.13;;;9.83;;
8881;SDS011;4477;48.736;9.176;2023-12-04T11:24:13;13.07;;;10.43;;
8881;SDS011;4477;48.736;9.176;2023-12-04T11:26:41;12.07;;;10.10;;
8881;SDS011;4477;48.736;9.176;2023-12-04T11:29:08;12.33;;;9.87;;
8881;SDS011;4477;48.736;9.176;2023-12-04T11:31:37;16.53;;;10.60;;
8881;SDS011;4477;48.736;9.176;2023-12-04T11:34:04;11.67;;;9.83;;
8881;SDS011;4477;48.736;9.176;2023-12-04T11:36:34;12.20;;;9.87;;
8881;SDS011;4477;48.736;9.176;2023-12-04T11:39:02;12.67;;;9.97;;
8881;SDS011;4477;48.736;9.176;2023-12-04T11:41:32;11.30;;;9.37;;
8881;SDS011;4477;48.736;9.176;2023-12-04T11:43:58;15.27;;;10.70;;
8881;SDS011;4477;48.736;9.176;2023-12-04T11:46:26;11.87;;;9.47;;
8881;SDS011;4477;48.736;9.176;2023-12-04T11:48:56;11.27;;;9.20;;
8881;SDS011;4477;48.736;9.176;2023-12-04T11:51:46;12.23;;;9.93;;
8881;SDS011;4477;48.736;9.176;2023-12-04T11:54:16;13.20;;;9.57;;
8881;SDS011;4477;48.736;9.176;2023-12-04T11:56:57;17.03;;;12.10;;
8881;SDS011;4477;48.736;9.176;2023-12-04T11:59:25;16.37;;;12.20;;
8881;SDS011;4477;48.736;9.176;2023-12-04T12:01:53;13.13;;;10.53;;
8881;SDS011;4477;48.736;9.176;2023-12-04T12:04:22;15.83;;;11.37;;
8881;SDS011;4477;48.736;9.176;2023-12-04T12:06:49;14.87;;;11.97;;
8881;SDS011;4477;48.736;9.176;2023-12-04T12:09:16;15.97;;;12.57;;
8881;SDS011;4477;48.736;9.176;2023-12-04T12:11:44;15.87;;;11.87;;
8881;SDS011;4477;48.736;9.176;2023-12-04T12:14:12;15.87;;;12.30;;
8881;SDS011;4477;48.736;9.176;2023-12-04T12:16:39;15.37;;;11.63;;
8881;SDS011;4477;48.736;9.176;2023-12-04T12:19:07;12.87;;;10.77;;
8881;SDS011;4477;48.736;9.176;2023-12-04T12:21:34;15.07;;;11.60;;
8881;SDS011;4477;48.736;9.176;2023-12-04T12:24:02;13.60;;;10.50;;
8881;SDS011;4477;48.736;9.176;2023-12-04T12:26:29;14.53;;;11.50;;
8881;SDS011;4477;48.736;9.176;2023-12-04T12:28:55;14.40;;;11.40;;
8881;SDS011;4477;48.736;9.176;2023-12-04T12:31:24;14.90;;;11.53;;
8881;SDS011;4477;48.736;9.176;2023-12-04T12:33:51;14.67;;;11.83;;
8881;SDS011;4477;48.736;9.176;2023-12-04T12:36:18;14.37;;;12.63;;
8881;SDS011;4477;48.736;9.176;2023-12-04T12:38:45;17.83;;;13.00;;
8881;SDS011;4477;48.736;9.176;2023-12-04T12:41:15;17.57;;;13.83;;
8881;SDS011;4477;48.736;9.176;2023-12-04T12:43:42;16.57;;;13.47;;
8881;SDS011;4477;48.736;9.176;2023-12-04T12:46:09;17.10;;;13.33;;
8881;SDS011;4477;48.736;9.176;2023-12-04T12:48:38;15.07;;;13.00;;
8881;SDS011;4477;48.736;9.176;2023-12-04T12:51:05;17.80;;;13.70;;
8881;SDS011;4477;48.736;9.176;2023-12-04T12:53:36;16.27;;;13.07;;
8881;SDS011;4477;48.736;9.176;2023-12-04T12:56:03;19.13;;;14.73;;
8881;SDS011;4477;48.736;9.176;2023-12-04T12:58:31;16.07;;;13.87;;
8881;SDS011;4477;48.736;9.176;2023-12-04T13:00:59;18.90;;;14.97;;
8881;SDS011;4477;48.736;9.176;2023-12-04T13:03:27;21.93;;;16.50;;
8881;SDS011;4477;48.736;9.176;2023-12-04T13:05:57;20.00;;;15.10;;
8881;SDS011;4477;48.736;9.176;2023-12-04T13:08:24;18.17;;;15.97;;
8881;SDS011;4477;48.736;9.176;2023-12-04T13:10:51;21.53;;;16.53;;
8881;SDS011;4477;48.736;9.176;2023-12-04T13:13:18;20.60;;;16.47;;
8881;SDS011;4477;48.736;9.176;2023-12-04T13:15:45;24.60;;;17.53;;
8881;SDS011;4477;48.736;9.176;2023-12-04T13:18:11;20.20;;;17.33;;
8881;SDS011;4477;48.736;9.176;2023-12-04T13:20:38;20.97;;;17.53;;
8881;SDS011;4477;48.736;9.176;2023-12-04T13:23:06;21.93;;;17.33;;
8881;SDS011;4477;48.736;9.176;2023-12-04T13:25:34;20.00;;;16.63;;
8881;SDS011;4477;48.736;9.176;2023-12-04T13:28:00;20.07;;;16.23;;
8881;SDS011;4477;48.736;9.176;2023-12-04T13:30:27;20.77;;;16.13;;
8881;SDS011;4477;48.736;9.176;2023-12-04T13:32:54;22.30;;;16.53;;
8881;SDS011;4477;48.736;9.176;2023-12-04T13:35:21;19.63;;;15.63;;
8881;SDS011;4477;48.736;9.176;2023-12-04T13:37:48;21.90;;;16.30;;
8881;SDS011;4477;48.736;9.176;2023-12-04T13:40:21;20.00;;;15.47;;
8881;SDS011;4477;48.736;9.176;2023-12-04T13:42:51;21.57;;;16.37;;
8881;SDS011;4477;48.736;9.176;2023-12-04T13:45:36;20.40;;;16.10;;
8881;SDS011;4477;48.736;9.176;2023-12-04T13:48:03;19.77;;;15.60;;
8881;SDS011;4477;48.736;9.176;2023-12-04T13:50:30;22.87;;;17.30;;
8881;SDS011;4477;48.736;9.176;2023-12-04T13:52:57;22.87;;;17.17;;
8881;SDS011;4477;48.736;9.176;2023-12-04T13:55:26;22.83;;;17.20;;
8881;SDS011;4477;48.736;9.176;2023-12-04T13:58:21;23.00;;;17.20;;
8881;SDS011;4477;48.736;9.176;2023-12-04T14:01:17;21.50;;;16.67;;
8881;SDS011;4477;48.736;9.176;2023-12-04T14:03:48;22.77;;;18.17;;
8881;SDS011;4477;48.736;9.176;2023-12-04T14:06:14;22.90;;;18.00;;
8881;SDS011;4477;48.736;9.176;2023-12-04T14:08:41;23.83;;;18.27;;
8881;SDS011;4477;48.736;9.176;2023-12-04T14:11:08;27.13;;;18.73;;
8881;SDS011;4477;48.736;9.176;2023-12-04T14:13:36;23.93;;;17.73;;
8881;SDS011;4477;48.736;9.176;2023-12-04T14:16:04;24.23;;;18.13;;
8881;SDS011;4477;48.736;9.176;2023-12-04T14:18:33;24.43;;;18.20;;
8881;SDS011;4477;48.736;9.176;2023-12-04T14:20:59;26.80;;;18.77;;
8881;SDS011;4477;48.736;9.176;2023-12-04T14:23:27;27.57;;;19.60;;
8881;SDS011;4477;48.736;9.176;2023-12-04T14:25:53;27.27;;;19.03;;
8881;SDS011;4477;48.736;9.176;2023-12-04T14:28:20;26.87;;;19.83;;
8881;SDS011;4477;48.736;9.176;2023-12-04T14:30:47;26.23;;;19.13;;
8881;SDS011;4477;48.736;9.176;2023-12-04T14:33:14;28.37;;;20.23;;
8881;SDS011;4477;48.736;9.176;2023-12-04T14:35:42;24.03;;;18.27;;
8881;SDS011;4477;48.736;9.176;2023-12-04T14:38:09;25.43;;;18.50;;
8881;SDS011;4477;48.736;9.176;2023-12-04T14:40:36;23.97;;;17.17;;
8881;SDS011;4477;48.736;9.176;2023-12-04T14:43:03;25.80;;;18.17;;
8881;SDS011;4477;48.736;9.176;2023-12-04T14:45:34;24.80;;;18.13;;
8881;SDS011;4477;48.736;9.176;2023-12-04T14:48:02;23.83;;;16.67;;
8881;SDS011;4477;48.736;9.176;2023-12-04T14:50:32;23.93;;;18.30;;
8881;SDS011;4477;48.736;9.176;2023-12-04T14:53:00;24.80;;;17.70;;
8881;SDS011;4477;48.736;9.176;2023-12-04T14:55:40;24.50;;;17.77;;
8881;SDS011;4477;48.736;9.176;2023-12-04T14:58:37;23.93;;;17.73;;